createdAt,value
2024-03-22T00:00:46.618Z,160.72
2024-03-22T00:01:46.604Z,161.68
2024-03-22T00:02:46.702Z,160.45
2024-03-22T00:03:46.688Z,162.42
2024-03-22T00:04:47.042Z,160.60
2024-03-22T00:05:46.816Z,162.08
2024-03-22T00:06:46.918Z,162.20
2024-03-22T00:07:46.927Z,161.02
2024-03-22T00:08:46.935Z,161.20
2024-03-22T00:09:46.938Z,161.56
2024-03-22T00:10:46.982Z,159.79
2024-03-22T00:11:47.024Z,161.88
2024-03-22T00:12:47.037Z,161.56
2024-03-22T00:13:47.078Z,162.91
2024-03-22T00:14:47.118Z,161.31
2024-03-22T00:15:47.122Z,161.33
2024-03-22T00:16:47.165Z,159.95
2024-03-22T00:17:47.241Z,160.22
2024-03-22T00:18:47.254Z,159.63
2024-03-22T00:19:47.280Z,159.06
2024-03-22T00:20:47.344Z,160.16
2024-03-22T00:21:47.397Z,160.75
2024-03-22T00:22:47.509Z,159.58
2024-03-22T00:23:47.450Z,160.59
2024-03-22T00:24:47.464Z,161.05
2024-03-22T00:25:47.488Z,159.84
2024-03-22T00:26:47.508Z,160.48
2024-03-22T00:27:47.623Z,160.08
2024-03-22T00:28:47.606Z,159.78
2024-03-22T00:29:47.559Z,159.80
2024-03-22T00:30:47.647Z,159.71
2024-03-22T00:31:47.648Z,158.94
2024-03-22T00:32:48.116Z,160.70
2024-03-22T00:33:47.716Z,159.86
2024-03-22T00:34:47.721Z,160.63
2024-03-22T00:35:47.782Z,159.57
2024-03-22T00:36:47.844Z,160.14
2024-03-22T00:37:47.823Z,160.17
2024-03-22T00:38:47.853Z,158.55
2024-03-22T00:39:47.832Z,158.18
2024-03-22T00:40:47.875Z,159.31
2024-03-22T00:41:47.902Z,159.30
2024-03-22T00:42:47.924Z,160.24
2024-03-22T00:43:47.939Z,158.56
2024-03-22T00:44:47.924Z,159.97
2024-03-22T00:45:47.932Z,158.01
2024-03-22T00:46:47.975Z,160.02
2024-03-22T00:47:48.058Z,158.77
2024-03-22T00:48:47.961Z,158.79
2024-03-22T00:49:47.972Z,160.70
2024-03-22T00:50:47.978Z,159.50
2024-03-22T00:51:47.985Z,157.73
2024-03-22T00:52:48.019Z,158.75
2024-03-22T00:53:48.000Z,158.28
2024-03-22T00:54:47.988Z,157.34
2024-03-22T00:55:48.019Z,158.00
2024-03-22T00:56:48.566Z,159.62
2024-03-22T00:57:48.050Z,157.50
2024-03-22T00:58:48.124Z,158.53
2024-03-22T00:59:48.124Z,157.02
2024-03-22T01:00:48.150Z,158.06
2024-03-22T01:01:48.177Z,158.54
2024-03-22T01:02:48.193Z,158.59
2024-03-22T01:03:48.203Z,158.74
2024-03-22T01:04:48.196Z,159.14
2024-03-22T01:05:48.243Z,157.89
2024-03-22T01:06:48.277Z,157.28
2024-03-22T01:07:50.521Z,158.53
2024-03-22T01:08:48.264Z,158.64
2024-03-22T01:09:48.307Z,158.98
2024-03-22T01:10:48.305Z,157.55
2024-03-22T01:11:48.287Z,160.70
2024-03-22T01:12:48.294Z,157.32
2024-03-22T01:13:48.261Z,157.79
2024-03-22T01:14:48.290Z,157.59
2024-03-22T01:15:48.276Z,157.98
2024-03-22T01:16:48.283Z,158.19
2024-03-22T01:17:48.291Z,156.20
2024-03-22T01:18:48.298Z,158.31
2024-03-22T01:19:48.273Z,157.29
2024-03-22T01:20:48.307Z,159.14
2024-03-22T01:21:48.323Z,158.27
2024-03-22T01:22:48.285Z,156.53
2024-03-22T01:23:48.298Z,159.94
2024-03-22T01:24:48.299Z,158.89
2024-03-22T01:25:48.277Z,156.41
2024-03-22T01:26:48.283Z,159.51
2024-03-22T01:27:48.288Z,156.30
2024-03-22T01:28:48.302Z,156.09
2024-03-22T01:29:48.301Z,159.20
2024-03-22T01:30:48.297Z,157.70
2024-03-22T01:31:48.309Z,158.20
2024-03-22T01:32:48.367Z,156.70
2024-03-22T01:33:48.297Z,158.01
2024-03-22T01:34:48.301Z,157.05
2024-03-22T01:35:48.342Z,157.89
2024-03-22T01:36:48.386Z,157.96
2024-03-22T01:37:48.319Z,157.08
2024-03-22T01:38:48.308Z,157.13
2024-03-22T01:39:48.303Z,157.98
2024-03-22T01:40:48.378Z,157.48
2024-03-22T01:41:48.318Z,157.01
2024-03-22T01:42:48.314Z,156.99
2024-03-22T01:43:48.315Z,157.64
2024-03-22T01:44:48.326Z,156.16
2024-03-22T01:45:48.340Z,157.01
2024-03-22T01:46:48.316Z,156.54
2024-03-22T01:47:48.313Z,155.79
2024-03-22T01:48:48.330Z,157.45
2024-03-22T01:49:48.325Z,157.46
2024-03-22T01:50:48.312Z,156.44
2024-03-22T01:51:48.311Z,155.31
2024-03-22T01:52:48.324Z,156.74
2024-03-22T01:53:48.330Z,156.78
2024-03-22T01:54:48.338Z,155.90
2024-03-22T01:55:48.303Z,158.84
2024-03-22T01:56:48.315Z,157.49
2024-03-22T01:57:48.331Z,156.55
2024-03-22T01:58:48.341Z,156.81
2024-03-22T01:59:48.331Z,157.80
2024-03-22T02:00:48.382Z,156.02
2024-03-22T02:01:48.370Z,156.03
2024-03-22T02:02:48.357Z,155.92
2024-03-22T02:03:48.374Z,158.83
2024-03-22T02:04:48.325Z,157.82
2024-03-22T02:05:48.453Z,156.73
2024-03-22T02:06:48.343Z,154.41
2024-03-22T02:07:48.354Z,156.15
2024-03-22T02:08:48.366Z,157.55
2024-03-22T02:09:48.350Z,156.76
2024-03-22T02:10:48.337Z,155.96
2024-03-22T02:11:48.342Z,155.42
2024-03-22T02:12:48.348Z,155.59
2024-03-22T02:13:48.338Z,157.09
2024-03-22T02:14:48.343Z,155.90
2024-03-22T02:15:48.358Z,156.02
2024-03-22T02:16:48.359Z,155.09
2024-03-22T02:17:48.383Z,155.93
2024-03-22T02:18:48.355Z,156.78
2024-03-22T02:19:48.372Z,155.34
2024-03-22T02:20:48.354Z,154.24
2024-03-22T02:21:48.390Z,155.25
2024-03-22T02:22:48.354Z,157.04
2024-03-22T02:23:48.354Z,155.37
2024-03-22T02:24:48.378Z,156.50
2024-03-22T02:25:48.377Z,156.03
2024-03-22T02:26:48.355Z,156.46
2024-03-22T02:27:48.423Z,154.66
2024-03-22T02:28:48.406Z,155.83
2024-03-22T02:29:48.408Z,155.68
2024-03-22T02:30:48.381Z,157.40
2024-03-22T02:31:48.350Z,155.02
2024-03-22T02:32:48.391Z,156.50
2024-03-22T02:33:48.380Z,155.21
2024-03-22T02:34:56.003Z,156.23
2024-03-22T02:35:49.370Z,156.33
2024-03-22T02:36:48.399Z,156.69
2024-03-22T02:37:48.388Z,156.34
2024-03-22T02:38:48.398Z,155.86
2024-03-22T02:39:48.372Z,156.46
2024-03-22T02:40:48.377Z,155.83
2024-03-22T02:41:48.397Z,156.67
2024-03-22T02:42:48.401Z,155.64
2024-03-22T02:43:48.414Z,157.84
2024-03-22T02:44:48.473Z,156.08
2024-03-22T02:45:48.397Z,154.83
2024-03-22T02:46:48.383Z,156.06
2024-03-22T02:47:48.392Z,154.38
2024-03-22T02:48:48.401Z,156.46
2024-03-22T02:49:48.399Z,154.73
2024-03-22T02:50:48.412Z,155.12
2024-03-22T02:51:48.422Z,155.74
2024-03-22T02:52:48.400Z,154.82
2024-03-22T02:53:48.398Z,157.41
2024-03-22T02:54:48.418Z,156.33
2024-03-22T02:55:48.416Z,154.99
2024-03-22T02:56:48.416Z,156.10
2024-03-22T02:57:48.425Z,154.77
2024-03-22T02:58:48.406Z,154.33
2024-03-22T02:59:48.450Z,155.57
2024-03-22T03:00:48.408Z,155.17
2024-03-22T03:01:48.421Z,153.99
2024-03-22T03:02:48.430Z,157.16
2024-03-22T03:03:48.424Z,154.89
2024-03-22T03:04:48.444Z,156.96
2024-03-22T03:05:48.420Z,154.98
2024-03-22T03:06:48.455Z,156.07
2024-03-22T03:07:48.465Z,153.96
2024-03-22T03:08:48.466Z,155.68
2024-03-22T03:09:48.452Z,154.07
2024-03-22T03:10:48.488Z,154.74
2024-03-22T03:11:48.416Z,154.00
2024-03-22T03:12:49.080Z,155.83
2024-03-22T03:13:48.428Z,157.13
2024-03-22T03:14:48.437Z,155.66
2024-03-22T03:15:48.454Z,153.18
2024-03-22T03:16:48.418Z,154.36
2024-03-22T03:17:48.432Z,153.09
2024-03-22T03:18:48.431Z,155.35
2024-03-22T03:19:48.464Z,153.63
2024-03-22T03:20:48.470Z,154.40
2024-03-22T03:21:48.422Z,154.82
2024-03-22T03:22:48.510Z,155.10
2024-03-22T03:23:48.473Z,152.22
2024-03-22T03:24:48.446Z,156.67
2024-03-22T03:25:48.443Z,154.86
2024-03-22T03:26:48.442Z,154.10
2024-03-22T03:27:48.460Z,154.99
2024-03-22T03:28:48.458Z,154.26
2024-03-22T03:29:48.467Z,153.79
2024-03-22T03:30:48.469Z,155.51
2024-03-22T03:31:48.491Z,153.55
2024-03-22T03:32:48.455Z,153.82
2024-03-22T03:33:48.502Z,152.62
2024-03-22T03:34:48.503Z,154.30
2024-03-22T03:35:48.443Z,154.32
2024-03-22T03:36:48.484Z,154.40
2024-03-22T03:37:48.485Z,151.88
2024-03-22T03:38:48.524Z,153.55
2024-03-22T03:39:48.570Z,155.59
2024-03-22T03:40:48.576Z,153.79
2024-03-22T03:41:48.574Z,154.50
2024-03-22T03:42:48.563Z,153.99
2024-03-22T03:43:48.598Z,154.04
2024-03-22T03:44:48.613Z,153.68
2024-03-22T03:45:48.632Z,154.62
2024-03-22T03:46:48.685Z,151.84
2024-03-22T03:47:48.666Z,151.68
2024-03-22T03:48:48.700Z,153.69
2024-03-22T03:49:48.702Z,155.02
2024-03-22T03:50:48.713Z,151.95
2024-03-22T03:51:48.749Z,152.48
2024-03-22T03:52:48.772Z,153.14
2024-03-22T03:53:48.777Z,152.51
2024-03-22T03:54:48.778Z,153.44
2024-03-22T03:55:48.786Z,152.54
2024-03-22T03:56:48.874Z,152.41
2024-03-22T03:57:48.867Z,154.24
2024-03-22T03:58:48.858Z,154.24
2024-03-22T03:59:48.855Z,152.26
2024-03-22T04:00:49.132Z,151.89
2024-03-22T04:01:48.938Z,154.25
2024-03-22T04:02:48.900Z,152.33
2024-03-22T04:03:48.957Z,154.87
2024-03-22T04:04:48.947Z,153.27
2024-03-22T04:05:48.957Z,154.78
2024-03-22T04:06:49.010Z,152.11
2024-03-22T04:07:49.038Z,150.37
2024-03-22T04:08:49.040Z,152.79
2024-03-22T04:09:49.100Z,152.80
2024-03-22T04:10:49.063Z,154.54
2024-03-22T04:11:49.109Z,151.46
2024-03-22T04:12:49.112Z,152.64
2024-03-22T04:13:49.187Z,149.90
2024-03-22T04:14:49.199Z,150.54
2024-03-22T04:15:49.229Z,151.90
2024-03-22T04:16:49.204Z,152.46
2024-03-22T04:17:49.251Z,153.24
2024-03-22T04:18:49.257Z,152.94
2024-03-22T04:19:49.330Z,152.05
2024-03-22T04:20:49.332Z,150.16
2024-03-22T04:21:49.308Z,150.43
2024-03-22T04:22:49.334Z,151.60
2024-03-22T04:23:49.348Z,151.91
2024-03-22T04:24:49.403Z,151.47
2024-03-22T04:25:49.413Z,152.88
2024-03-22T04:26:49.413Z,152.52
2024-03-22T04:27:49.449Z,152.04
2024-03-22T04:28:56.715Z,50.00
2024-03-22T04:29:56.670Z,50.00
2024-03-22T04:30:56.672Z,50.00
2024-03-22T04:32:03.911Z,50.00
2024-03-22T04:33:03.936Z,50.00
2024-03-22T04:34:03.907Z,50.00
2024-03-22T04:35:03.940Z,50.00
2024-03-22T04:36:03.870Z,50.00
2024-03-22T04:37:03.871Z,50.00
2024-03-22T04:38:03.944Z,51.46
2024-03-22T04:39:03.935Z,50.51
2024-03-22T04:40:03.912Z,52.05
2024-03-22T04:41:03.918Z,51.23
2024-03-22T04:42:03.952Z,51.74
2024-03-22T04:43:03.896Z,51.32
2024-03-22T04:44:04.128Z,50.77
2024-03-22T04:45:03.943Z,51.42
2024-03-22T04:46:03.887Z,53.78
2024-03-22T04:47:03.893Z,51.53
2024-03-22T04:48:03.904Z,51.38
2024-03-22T04:49:03.899Z,50.38
2024-03-22T04:50:03.898Z,51.11
2024-03-22T04:51:03.942Z,52.41
2024-03-22T04:52:03.953Z,51.95
2024-03-22T04:53:03.882Z,51.12
2024-03-22T04:54:03.935Z,50.58
2024-03-22T04:55:03.994Z,50.67
2024-03-22T04:56:03.918Z,50.47
2024-03-22T04:57:03.884Z,52.83
2024-03-22T04:58:03.963Z,52.33
2024-03-22T04:59:03.922Z,53.70
2024-03-22T05:00:03.932Z,50.83
2024-03-22T05:01:03.952Z,54.08
2024-03-22T05:02:03.943Z,50.79
2024-03-22T05:03:03.942Z,51.61
2024-03-22T05:04:03.952Z,53.32
2024-03-22T05:05:03.961Z,51.96
2024-03-22T05:06:03.969Z,50.00
2024-03-22T05:07:03.920Z,50.46
2024-03-22T05:08:03.931Z,52.10
2024-03-22T05:09:03.937Z,50.00
2024-03-22T05:10:03.941Z,51.72
2024-03-22T05:11:03.946Z,51.55
2024-03-22T05:12:03.973Z,50.74
2024-03-22T05:13:03.915Z,50.00
2024-03-22T05:14:03.916Z,50.00
2024-03-22T05:15:03.946Z,50.00
2024-03-22T05:16:03.935Z,49.73
2024-03-22T05:17:03.984Z,52.03
2024-03-22T05:18:03.949Z,51.91
2024-03-22T05:19:03.950Z,50.97
2024-03-22T05:20:04.389Z,52.18
2024-03-22T05:21:03.981Z,49.71
2024-03-22T05:22:03.971Z,50.74
2024-03-22T05:23:03.957Z,50.55
2024-03-22T05:24:03.955Z,50.18
2024-03-22T05:25:03.947Z,50.00
2024-03-22T05:26:03.948Z,50.00
2024-03-22T05:27:04.010Z,50.27
2024-03-22T05:28:49.682Z,50.00
2024-03-22T05:29:49.644Z,50.00
2024-03-22T05:30:49.644Z,50.00
2024-03-22T05:31:49.677Z,50.00
2024-03-22T05:32:49.666Z,50.00
2024-03-22T05:33:49.661Z,50.90
2024-03-22T05:34:49.670Z,50.25
2024-03-22T05:35:49.735Z,50.00
2024-03-22T05:36:49.691Z,51.29
2024-03-22T05:37:49.703Z,52.99
2024-03-22T05:38:49.699Z,51.13
2024-03-22T05:39:49.706Z,51.55
2024-03-22T05:40:49.670Z,53.36
2024-03-22T05:41:49.667Z,56.08
2024-03-22T05:42:49.675Z,53.25
2024-03-22T05:43:49.709Z,56.41
2024-03-22T05:44:49.670Z,54.37
2024-03-22T05:45:49.693Z,54.67
2024-03-22T05:46:49.701Z,54.48
2024-03-22T05:47:49.710Z,56.73
2024-03-22T05:48:49.688Z,53.52
2024-03-22T05:49:50.135Z,56.38
2024-03-22T05:50:49.669Z,57.03
2024-03-22T05:51:49.657Z,57.59
2024-03-22T05:52:49.692Z,58.05
2024-03-22T05:53:49.650Z,59.44
2024-03-22T05:54:49.708Z,59.14
2024-03-22T05:55:49.666Z,59.37
2024-03-22T05:56:49.672Z,61.60
2024-03-22T05:57:49.683Z,60.71
2024-03-22T05:58:49.673Z,63.15
2024-03-22T05:59:49.685Z,64.69
2024-03-22T06:00:49.698Z,64.62
2024-03-22T06:01:49.705Z,62.66
2024-03-22T06:02:49.687Z,62.96
2024-03-22T06:03:49.763Z,66.03
2024-03-22T06:04:49.694Z,64.89
2024-03-22T06:05:49.789Z,65.24
2024-03-22T06:06:49.685Z,68.48
2024-03-22T06:07:49.694Z,66.17
2024-03-22T06:08:49.724Z,65.63
2024-03-22T06:09:49.769Z,65.81
2024-03-22T06:10:49.718Z,66.21
2024-03-22T06:11:49.744Z,68.26
2024-03-22T06:12:49.726Z,68.40
2024-03-22T06:13:49.733Z,67.42
2024-03-22T06:14:49.750Z,70.05
2024-03-22T06:15:49.798Z,70.34
2024-03-22T06:16:49.821Z,68.61
2024-03-22T06:17:49.817Z,68.18
2024-03-22T06:18:49.825Z,70.13
2024-03-22T06:19:49.874Z,68.44
2024-03-22T06:20:49.902Z,69.92
2024-03-22T06:21:49.942Z,72.41
2024-03-22T06:22:49.947Z,73.22
2024-03-22T06:23:49.975Z,71.02
2024-03-22T06:24:50.020Z,71.18
2024-03-22T06:25:50.029Z,73.63
2024-03-22T06:26:50.030Z,71.62
2024-03-22T06:27:50.054Z,72.50
2024-03-22T06:28:50.094Z,72.19
2024-03-22T06:29:50.103Z,73.71
2024-03-22T06:30:50.162Z,71.63
2024-03-22T06:31:50.157Z,75.29
2024-03-22T06:32:50.192Z,71.05
2024-03-22T06:33:50.188Z,70.29
2024-03-22T06:34:50.243Z,64.69
2024-03-22T06:35:50.325Z,57.63
2024-03-22T06:36:50.318Z,50.92
2024-03-22T06:37:50.362Z,50.00
2024-03-22T06:38:50.661Z,50.00
2024-03-22T06:39:50.437Z,50.00
2024-03-22T06:40:50.536Z,53.47
2024-03-22T06:41:50.592Z,52.45
2024-03-22T06:42:50.659Z,52.56
2024-03-22T06:43:50.675Z,50.50
2024-03-22T06:44:50.778Z,51.00
2024-03-22T06:45:50.900Z,52.58
2024-03-22T06:46:50.835Z,51.70
2024-03-22T06:47:50.869Z,50.08
2024-03-22T06:48:50.950Z,51.13
2024-03-22T06:49:51.302Z,52.37
2024-03-22T06:50:50.926Z,52.28
2024-03-22T06:51:51.024Z,51.40
2024-03-22T06:52:51.081Z,50.49
2024-03-22T06:53:53.439Z,51.20
2024-03-22T06:54:51.293Z,51.06
2024-03-22T06:55:51.257Z,52.34
2024-03-22T06:56:51.269Z,53.35
2024-03-22T06:57:51.328Z,54.28
2024-03-22T06:58:51.833Z,51.40
2024-03-22T06:59:51.378Z,54.33
2024-03-22T07:00:51.391Z,55.34
2024-03-22T07:01:51.400Z,56.50
2024-03-22T07:02:52.376Z,58.28
2024-03-22T07:03:51.837Z,60.55
2024-03-22T07:04:51.899Z,59.99
2024-03-22T07:05:52.337Z,58.12
2024-03-22T07:06:51.488Z,59.33
2024-03-22T07:07:51.456Z,58.89
2024-03-22T07:08:51.449Z,58.40
2024-03-22T07:09:51.801Z,59.04
2024-03-22T07:10:51.496Z,58.15
2024-03-22T07:11:51.485Z,56.67
2024-03-22T07:12:51.510Z,55.73
2024-03-22T07:13:51.521Z,55.75
2024-03-22T07:14:51.856Z,52.80
2024-03-22T07:15:51.541Z,50.81
2024-03-22T07:16:51.562Z,51.38
2024-03-22T07:17:51.746Z,50.00
2024-03-22T07:18:51.553Z,51.24
2024-03-22T07:19:51.577Z,53.52
2024-03-22T07:20:51.622Z,54.51
2024-03-22T07:21:51.850Z,52.69
2024-03-22T07:22:51.595Z,51.36
2024-03-22T07:23:51.981Z,51.03
2024-03-22T07:24:51.552Z,51.57
2024-03-22T07:25:51.551Z,51.93
2024-03-22T07:26:51.812Z,53.73
2024-03-22T07:27:54.343Z,53.76
2024-03-22T07:28:51.622Z,55.65
2024-03-22T07:29:51.659Z,53.32
2024-03-22T07:30:51.684Z,53.59
2024-03-22T07:31:51.788Z,54.52
2024-03-22T07:32:51.754Z,56.87
2024-03-22T07:33:51.680Z,58.83
2024-03-22T07:34:51.643Z,59.12
2024-03-22T07:35:51.854Z,60.00
2024-03-22T07:36:51.636Z,60.79
2024-03-22T07:37:51.663Z,61.18
2024-03-22T07:38:51.749Z,62.03
2024-03-22T07:39:51.660Z,57.27
2024-03-22T07:40:51.810Z,55.60
2024-03-22T07:41:51.703Z,51.54
2024-03-22T07:42:51.980Z,51.94
2024-03-22T07:43:52.131Z,53.00
2024-03-22T07:44:52.937Z,53.46
2024-03-22T07:45:51.911Z,50.85
2024-03-22T07:46:51.644Z,55.05
2024-03-22T07:47:51.671Z,54.23
2024-03-22T07:48:51.754Z,57.60
2024-03-22T07:49:51.679Z,59.76
2024-03-22T07:50:51.858Z,64.88
2024-03-22T07:51:51.701Z,64.81
2024-03-22T07:52:51.714Z,66.93
2024-03-22T07:53:51.698Z,68.99
2024-03-22T07:54:51.758Z,71.79
2024-03-22T07:55:51.994Z,70.57
2024-03-22T07:56:51.841Z,71.89
2024-03-22T07:57:51.970Z,76.19
2024-03-22T07:58:51.714Z,75.31
2024-03-22T07:59:51.869Z,76.58
2024-03-22T08:00:51.856Z,78.08
2024-03-22T08:01:51.708Z,78.87
2024-03-22T08:02:51.736Z,78.72
2024-03-22T08:03:51.685Z,78.13
2024-03-22T08:04:51.737Z,80.34
2024-03-22T08:05:51.932Z,80.56
2024-03-22T08:06:51.835Z,80.89
2024-03-22T08:07:51.690Z,81.51
2024-03-22T08:08:51.780Z,78.87
2024-03-22T08:09:51.764Z,77.20
2024-03-22T08:10:51.821Z,79.09
2024-03-22T08:11:51.930Z,76.75
2024-03-22T08:12:52.368Z,77.38
2024-03-22T08:13:51.938Z,75.88
2024-03-22T08:14:52.003Z,72.25
2024-03-22T08:15:52.151Z,71.98
2024-03-22T08:16:52.113Z,70.67
2024-03-22T08:17:52.351Z,73.82
2024-03-22T08:18:52.457Z,75.54
2024-03-22T08:19:52.284Z,76.89
2024-03-22T08:20:52.365Z,78.77
2024-03-22T08:21:53.251Z,78.28
2024-03-22T08:22:52.409Z,68.85
2024-03-22T08:23:52.819Z,73.19
2024-03-22T08:24:53.329Z,79.96
2024-03-22T08:25:52.486Z,72.42
2024-03-22T08:26:52.856Z,76.13
2024-03-22T08:28:01.086Z,74.55
2024-03-22T08:28:53.666Z,74.56
2024-03-22T08:29:52.698Z,70.98
2024-03-22T08:30:53.433Z,75.66
2024-03-22T08:31:52.570Z,72.57
2024-03-22T08:32:52.588Z,78.12
2024-03-22T08:33:52.642Z,77.84
2024-03-22T08:34:52.618Z,76.36
2024-03-22T08:35:54.641Z,74.86
2024-03-22T08:36:52.875Z,79.15
2024-03-22T08:37:52.775Z,76.45
2024-03-22T08:38:52.795Z,73.96
2024-03-22T08:39:53.354Z,81.35
2024-03-22T08:40:52.825Z,81.08
2024-03-22T08:41:52.805Z,78.66
2024-03-22T08:42:52.871Z,78.70
2024-03-22T08:43:52.880Z,80.42
2024-03-22T08:44:52.953Z,80.53
2024-03-22T08:45:52.874Z,81.31
2024-03-22T08:46:52.864Z,82.11
2024-03-22T08:47:52.885Z,83.16
2024-03-22T08:48:52.883Z,79.00
2024-03-22T08:49:52.960Z,78.46
2024-03-22T08:50:52.981Z,77.95
2024-03-22T08:51:53.395Z,82.73
2024-03-22T08:52:52.936Z,84.26
2024-03-22T08:53:53.146Z,85.50
2024-03-22T08:54:53.094Z,89.74
2024-03-22T08:55:53.118Z,90.86
2024-03-22T08:56:53.206Z,92.44
2024-03-22T08:57:58.057Z,96.46
2024-03-22T08:58:54.281Z,96.69
2024-03-22T08:59:53.338Z,97.83
2024-03-22T09:00:53.305Z,99.69
2024-03-22T09:01:53.282Z,104.30
2024-03-22T09:02:53.375Z,107.51
2024-03-22T09:03:53.306Z,111.51
2024-03-22T09:04:53.279Z,112.85
2024-03-22T09:06:00.778Z,117.56
2024-03-22T09:06:54.308Z,117.75
2024-03-22T09:07:53.358Z,119.03
2024-03-22T09:08:53.334Z,121.39
2024-03-22T09:09:53.302Z,128.60
2024-03-22T09:10:53.350Z,134.80
2024-03-22T09:11:53.405Z,138.02
2024-03-22T09:12:53.313Z,141.03
2024-03-22T09:13:53.336Z,143.17
2024-03-22T09:14:53.372Z,144.27
2024-03-22T09:15:53.450Z,146.25
2024-03-22T09:16:53.553Z,149.16
2024-03-22T09:17:54.049Z,148.18
2024-03-22T09:18:53.594Z,148.64
2024-03-22T09:19:53.891Z,150.58
2024-03-22T09:20:53.866Z,152.02
2024-03-22T09:21:53.761Z,152.26
2024-03-22T09:22:53.845Z,154.79
2024-03-22T09:23:53.929Z,156.83
2024-03-22T09:24:53.919Z,156.11
2024-03-22T09:25:53.986Z,154.78
2024-03-22T09:26:54.123Z,154.20
2024-03-22T09:27:54.138Z,155.10
2024-03-22T09:28:54.258Z,153.83
2024-03-22T09:29:54.266Z,151.46
2024-03-22T09:30:57.968Z,149.76
2024-03-22T09:31:54.277Z,149.70
2024-03-22T09:32:54.292Z,144.42
2024-03-22T09:33:54.321Z,140.47
2024-03-22T09:34:54.396Z,137.70
2024-03-22T09:35:54.742Z,135.84
2024-03-22T09:36:54.346Z,134.88
2024-03-22T09:37:54.308Z,128.30
2024-03-22T09:38:54.369Z,125.44
2024-03-22T09:39:54.335Z,122.66
2024-03-22T09:40:54.372Z,119.21
2024-03-22T09:41:54.882Z,113.63
2024-03-22T09:42:54.299Z,105.11
2024-03-22T09:43:54.316Z,90.40
2024-03-22T09:44:54.442Z,82.93
2024-03-22T09:45:54.531Z,80.24
2024-03-22T09:46:54.320Z,71.80
2024-03-22T09:47:54.872Z,72.69
2024-03-22T09:48:54.317Z,69.30
2024-03-22T09:49:54.397Z,65.84
2024-03-22T09:50:54.331Z,66.24
2024-03-22T09:51:54.372Z,64.57
2024-03-22T09:52:54.384Z,69.66
2024-03-22T09:53:54.504Z,67.94
2024-03-22T09:54:54.358Z,70.59
2024-03-22T09:55:54.329Z,72.35
2024-03-22T09:56:54.957Z,70.05
2024-03-22T09:57:54.501Z,76.65
2024-03-22T09:58:54.404Z,77.11
2024-03-22T09:59:55.894Z,78.67
2024-03-22T10:00:54.893Z,77.68
2024-03-22T10:01:54.537Z,78.79
2024-03-22T10:02:54.768Z,82.04
2024-03-22T10:03:54.729Z,84.29
2024-03-22T10:04:54.755Z,83.56
2024-03-22T10:05:54.942Z,88.57
2024-03-22T10:06:54.880Z,92.04
2024-03-22T10:07:54.968Z,97.65
2024-03-22T10:08:55.055Z,98.62
2024-03-22T10:09:56.322Z,100.77
2024-03-22T10:10:55.150Z,103.00
2024-03-22T10:11:55.210Z,107.76
2024-03-22T10:12:55.877Z,110.31
2024-03-22T10:13:55.311Z,113.14
2024-03-22T10:14:55.390Z,116.92
2024-03-22T10:15:55.394Z,120.45
2024-03-22T10:16:57.844Z,123.12
2024-03-22T10:17:55.549Z,126.98
2024-03-22T10:18:55.653Z,125.19
2024-03-22T10:19:55.617Z,124.84
2024-03-22T10:20:55.894Z,126.97
2024-03-22T10:21:55.780Z,127.87
2024-03-22T10:22:55.775Z,126.71
2024-03-22T10:23:55.863Z,126.73
2024-03-22T10:24:56.429Z,126.91
2024-03-22T10:25:56.023Z,122.77
2024-03-22T10:26:55.947Z,119.12
2024-03-22T10:27:56.080Z,117.87
2024-03-22T10:28:56.105Z,113.77
2024-03-22T10:29:56.178Z,111.92
2024-03-22T10:30:56.263Z,111.17
2024-03-22T10:31:56.526Z,113.49
2024-03-22T10:32:56.374Z,113.53
2024-03-22T10:33:56.402Z,110.98
2024-03-22T10:34:57.905Z,96.88
2024-03-22T10:35:56.434Z,90.96
2024-03-22T10:36:56.997Z,80.45
2024-03-22T10:37:56.511Z,70.03
2024-03-22T10:38:56.488Z,60.16
2024-03-22T10:39:56.513Z,58.98
2024-03-22T10:40:56.510Z,51.36
2024-03-22T10:41:56.611Z,51.61
2024-03-22T10:42:56.539Z,52.21
2024-03-22T10:43:56.651Z,50.64
2024-03-22T10:44:56.895Z,53.34
2024-03-22T10:45:58.626Z,54.59
2024-03-22T10:46:56.822Z,55.45
2024-03-22T10:47:56.764Z,58.93
2024-03-22T10:48:57.478Z,59.97
2024-03-22T10:49:56.884Z,63.58
2024-03-22T10:50:57.104Z,63.53
2024-03-22T10:51:57.447Z,66.36
2024-03-22T10:52:57.045Z,71.21
2024-03-22T10:53:57.143Z,68.43
2024-03-22T10:54:57.419Z,76.15
2024-03-22T10:55:57.231Z,78.05
2024-03-22T10:56:57.340Z,84.18
2024-03-22T10:57:57.303Z,84.54
2024-03-22T10:58:57.394Z,88.04
2024-03-22T10:59:57.458Z,89.40
2024-03-22T11:00:57.400Z,91.95
2024-03-22T11:01:57.517Z,95.90
2024-03-22T11:02:57.504Z,102.00
2024-03-22T11:03:57.991Z,102.96
2024-03-22T11:04:57.533Z,107.28
2024-03-22T11:05:57.618Z,107.81
2024-03-22T11:06:57.919Z,109.52
2024-03-22T11:07:57.629Z,108.75
2024-03-22T11:08:57.703Z,112.24
2024-03-22T11:09:57.905Z,114.26
2024-03-22T11:10:57.710Z,117.76
2024-03-22T11:11:59.614Z,119.07
2024-03-22T11:12:57.933Z,121.45
2024-03-22T11:13:57.786Z,126.43
2024-03-22T11:14:57.771Z,122.13
2024-03-22T11:15:57.755Z,127.13
2024-03-22T11:16:57.868Z,128.39
2024-03-22T11:17:59.602Z,132.27
2024-03-22T11:18:57.803Z,133.29
2024-03-22T11:19:57.799Z,137.97
2024-03-22T11:20:57.859Z,139.34
2024-03-22T11:21:57.828Z,142.94
2024-03-22T11:22:57.837Z,145.88
2024-03-22T11:23:57.985Z,143.52
2024-03-22T11:24:57.960Z,142.04
2024-03-22T11:25:57.997Z,144.63
2024-03-22T11:26:57.989Z,144.27
2024-03-22T11:27:57.962Z,147.19
2024-03-22T11:28:58.011Z,149.33
2024-03-22T11:29:57.986Z,147.93
2024-03-22T11:30:58.395Z,150.71
2024-03-22T11:31:57.980Z,150.98
2024-03-22T11:32:57.965Z,155.64
2024-03-22T11:33:57.976Z,153.86
2024-03-22T11:34:57.981Z,151.34
2024-03-22T11:35:58.414Z,147.95
2024-03-22T11:36:58.041Z,145.39
2024-03-22T11:37:58.044Z,139.22
2024-03-22T11:38:58.949Z,138.15
2024-03-22T11:39:58.060Z,131.93
2024-03-22T11:40:58.080Z,127.82
2024-03-22T11:41:58.105Z,125.32
2024-03-22T11:42:58.113Z,124.07
2024-03-22T11:43:58.178Z,115.88
2024-03-22T11:44:58.134Z,115.63
2024-03-22T11:45:58.119Z,108.53
2024-03-22T11:46:58.167Z,106.94
2024-03-22T11:47:58.194Z,104.10
2024-03-22T11:48:58.175Z,101.03
2024-03-22T11:49:58.212Z,99.67
2024-03-22T11:50:58.270Z,94.35
2024-03-22T11:51:58.244Z,92.40
2024-03-22T11:52:58.304Z,88.94
2024-03-22T11:53:58.350Z,84.83
2024-03-22T11:54:58.324Z,82.33
2024-03-22T11:55:58.328Z,78.70
2024-03-22T11:56:58.482Z,75.44
2024-03-22T11:57:58.475Z,70.72
2024-03-22T11:58:58.474Z,68.37
2024-03-22T12:00:07.034Z,65.54
2024-03-22T12:01:12.482Z,62.49
2024-03-22T12:01:59.516Z,64.11
2024-03-22T12:02:58.470Z,59.07
2024-03-22T12:03:58.457Z,56.50
2024-03-22T12:04:58.462Z,54.37
2024-03-22T12:05:58.481Z,49.97
2024-03-22T12:06:58.564Z,52.00
2024-03-22T12:07:58.492Z,53.73
2024-03-22T12:08:58.483Z,52.90
2024-03-22T12:09:59.441Z,57.94
2024-03-22T12:10:58.485Z,57.20
2024-03-22T12:11:58.608Z,58.55
2024-03-22T12:12:58.492Z,62.01
2024-03-22T12:13:58.469Z,64.83
2024-03-22T12:14:58.527Z,67.04
2024-03-22T12:15:58.943Z,69.48
2024-03-22T12:16:58.531Z,71.51
2024-03-22T12:17:59.019Z,75.17
2024-03-22T12:18:58.486Z,77.35
2024-03-22T12:19:58.488Z,77.58
2024-03-22T12:20:58.489Z,79.55
2024-03-22T12:21:58.480Z,82.51
2024-03-22T12:22:58.514Z,83.52
2024-03-22T12:23:58.511Z,85.37
2024-03-22T12:24:58.506Z,84.59
2024-03-22T12:25:58.504Z,85.28
2024-03-22T12:26:58.541Z,88.70
2024-03-22T12:27:58.487Z,89.53
2024-03-22T12:28:58.507Z,87.53
2024-03-22T12:29:58.582Z,92.55
2024-03-22T12:30:58.489Z,93.05
2024-03-22T12:31:58.490Z,93.97
2024-03-22T12:32:58.543Z,96.38
2024-03-22T12:33:58.498Z,86.26
2024-03-22T12:34:58.512Z,69.82
2024-03-22T12:35:58.546Z,48.67
2024-03-22T12:36:58.504Z,47.90
2024-03-22T12:37:58.529Z,50.00
2024-03-22T12:38:58.532Z,51.92
2024-03-22T12:39:58.499Z,50.00
2024-03-22T12:40:58.525Z,44.33
2024-03-22T12:41:58.640Z,47.90